createdAt,value
2023-02-24T00:00:16.561Z,41.01
2023-02-24T00:01:16.551Z,42.51
2023-02-24T00:04:41.502Z,36.21
2023-02-24T00:05:41.477Z,37.65
2023-02-24T00:06:41.459Z,38.24
2023-02-24T00:07:41.456Z,37.32
2023-02-24T00:08:41.978Z,37.81
2023-02-24T00:20:45.894Z,37.99
2023-02-24T00:21:45.927Z,38.19
2023-02-24T00:22:45.893Z,37.26
2023-02-24T00:23:45.861Z,37.16
2023-02-24T00:24:45.862Z,36.61
2023-02-24T00:25:45.848Z,36.60
2023-02-24T00:26:45.930Z,36.89
2023-02-24T00:27:45.824Z,37.77
2023-02-24T00:28:45.811Z,39.61
2023-02-24T00:29:45.844Z,40.59
2023-02-24T00:30:45.808Z,39.08
2023-02-24T00:31:45.965Z,38.00
2023-02-24T00:32:45.919Z,37.87
2023-02-24T00:33:45.770Z,37.78
2023-02-24T00:34:45.768Z,37.00
2023-02-24T00:35:45.753Z,36.83
2023-02-24T00:36:45.739Z,37.70
2023-02-24T00:37:45.729Z,36.97
2023-02-24T00:38:45.719Z,38.01
2023-02-24T00:39:45.721Z,37.02
2023-02-24T00:40:45.697Z,37.18
2023-02-24T00:41:45.687Z,36.46
2023-02-24T00:42:45.680Z,36.44
2023-02-24T00:43:45.665Z,36.73
2023-02-24T00:44:45.674Z,38.00
2023-02-24T00:45:45.660Z,37.33
2023-02-24T00:46:45.629Z,36.82
2023-02-24T00:47:45.639Z,36.94
2023-02-24T00:48:45.611Z,38.64
2023-02-24T00:49:45.617Z,38.56
2023-02-24T00:50:45.592Z,36.43
2023-02-24T00:51:45.593Z,36.86
2023-02-24T00:52:45.570Z,36.75
2023-02-24T00:53:45.569Z,37.48
2023-02-24T00:54:45.567Z,38.63
2023-02-24T00:55:45.544Z,38.25
2023-02-24T00:56:45.601Z,40.30
2023-02-24T00:57:45.516Z,39.26
2023-02-24T00:58:45.545Z,37.38
2023-02-24T00:59:45.520Z,36.98
2023-02-24T01:00:45.489Z,36.69
2023-02-24T01:01:45.532Z,37.01
2023-02-24T01:02:45.464Z,36.47
2023-02-24T01:03:45.491Z,36.59
2023-02-24T01:04:45.484Z,38.01
2023-02-24T01:05:45.444Z,39.08
2023-02-24T01:06:45.428Z,38.36
2023-02-24T01:07:45.454Z,36.81
2023-02-24T01:08:45.413Z,36.67
2023-02-24T01:09:45.435Z,37.46
2023-02-24T01:10:45.447Z,39.04
2023-02-24T01:11:45.381Z,39.42
2023-02-24T01:12:45.380Z,36.81
2023-02-24T01:13:45.355Z,37.28
2023-02-24T01:14:45.383Z,36.80
2023-02-24T01:15:45.409Z,41.84
2023-02-24T01:16:45.333Z,38.40
2023-02-24T01:17:45.311Z,36.10
2023-02-24T01:18:45.304Z,37.14
2023-02-24T01:19:45.283Z,37.23
2023-02-24T01:20:45.283Z,36.83
2023-02-24T01:21:45.266Z,36.61
2023-02-24T01:22:45.258Z,40.26
2023-02-24T01:23:45.249Z,41.83
2023-02-24T01:24:45.258Z,43.17
2023-02-24T01:25:45.273Z,41.56
2023-02-24T01:26:45.230Z,46.44
2023-02-24T01:27:45.208Z,38.73
2023-02-24T01:28:45.197Z,36.85
2023-02-24T01:29:45.201Z,38.75
2023-02-24T01:30:45.187Z,38.41
2023-02-24T01:31:47.316Z,37.84
2023-02-24T01:32:45.354Z,37.64
2023-02-24T01:33:45.159Z,37.25
2023-02-24T01:34:45.135Z,36.37
2023-02-24T01:35:45.129Z,36.79
2023-02-24T01:36:45.108Z,36.87
2023-02-24T01:37:45.101Z,37.12
2023-02-24T01:38:45.088Z,37.13
2023-02-24T01:39:45.085Z,36.13
2023-02-24T01:40:45.077Z,36.74
2023-02-24T01:41:45.111Z,44.61
2023-02-24T01:42:45.052Z,37.94
2023-02-24T01:43:45.045Z,36.69
2023-02-24T01:44:45.032Z,36.82
2023-02-24T01:45:45.044Z,38.10
2023-02-24T01:46:45.057Z,44.86
2023-02-24T01:47:45.002Z,39.89
2023-02-24T01:48:45.006Z,37.89
2023-02-24T01:49:44.993Z,38.17
2023-02-24T01:50:44.986Z,39.01
2023-02-24T01:51:44.961Z,38.76
2023-02-24T01:52:44.955Z,38.73
2023-02-24T01:53:44.957Z,38.84
2023-02-24T01:54:44.929Z,38.10
2023-02-24T01:55:44.928Z,37.19
2023-02-24T01:56:44.911Z,37.96
2023-02-24T01:57:44.940Z,38.21
2023-02-24T01:58:44.887Z,37.08
2023-02-24T01:59:44.925Z,38.17
2023-02-24T02:00:44.926Z,38.65
2023-02-24T02:01:44.946Z,37.31
2023-02-24T02:02:45.031Z,36.81
2023-02-24T02:03:44.850Z,38.87
2023-02-24T02:04:44.849Z,40.40
2023-02-24T02:05:44.837Z,38.99
2023-02-24T02:06:44.805Z,38.98
2023-02-24T02:07:44.798Z,38.20
2023-02-24T02:08:44.792Z,37.13
2023-02-24T02:09:44.781Z,36.95
2023-02-24T02:10:44.784Z,37.99
2023-02-24T02:11:44.754Z,39.14
2023-02-24T02:12:44.969Z,37.40
2023-02-24T02:13:44.793Z,37.03
2023-02-24T02:14:44.730Z,36.60
2023-02-24T02:15:44.734Z,39.93
2023-02-24T02:16:44.693Z,39.10
2023-02-24T02:17:44.687Z,37.46
2023-02-24T02:18:44.685Z,36.54
2023-02-24T02:19:44.674Z,36.38
2023-02-24T02:20:44.693Z,36.61
2023-02-24T02:21:44.654Z,37.38
2023-02-24T02:22:44.647Z,37.10
2023-02-24T02:23:44.632Z,36.87
2023-02-24T02:24:44.627Z,37.03
2023-02-24T02:25:44.628Z,45.32
2023-02-24T02:26:44.600Z,42.10
2023-02-24T02:27:44.583Z,37.44
2023-02-24T02:28:44.578Z,36.47
2023-02-24T02:29:44.577Z,36.86
2023-02-24T02:30:44.659Z,36.70
2023-02-24T02:31:44.715Z,40.38
2023-02-24T02:32:44.672Z,36.61
2023-02-24T02:33:44.538Z,36.79
2023-02-24T02:34:44.515Z,36.50
2023-02-24T02:35:44.510Z,36.49
2023-02-24T02:36:44.505Z,36.99
2023-02-24T02:37:44.488Z,37.88
2023-02-24T02:38:44.477Z,38.17
2023-02-24T02:39:44.475Z,37.50
2023-02-24T02:40:44.461Z,42.23
2023-02-24T02:41:44.458Z,36.93
2023-02-24T02:42:44.451Z,36.77
2023-02-24T02:43:44.422Z,36.86
2023-02-24T02:44:44.416Z,36.61
2023-02-24T02:45:44.434Z,37.10
2023-02-24T02:46:44.414Z,42.45
2023-02-24T02:47:44.387Z,36.82
2023-02-24T02:48:44.371Z,37.01
2023-02-24T02:49:44.379Z,37.72
2023-02-24T02:50:44.343Z,37.63
2023-02-24T02:51:44.347Z,37.29
2023-02-24T02:52:44.326Z,36.98
2023-02-24T02:53:44.308Z,37.20
2023-02-24T02:54:44.298Z,37.94
2023-02-24T02:55:44.294Z,38.15
2023-02-24T02:56:44.287Z,38.47
2023-02-24T02:57:44.274Z,38.38
2023-02-24T02:58:44.252Z,37.62
2023-02-24T02:59:44.242Z,36.99
2023-02-24T03:00:44.250Z,37.44
2023-02-24T03:01:44.234Z,38.32
2023-02-24T03:02:44.212Z,40.77
2023-02-24T03:03:44.202Z,40.21
2023-02-24T03:04:44.289Z,41.48
2023-02-24T03:05:44.189Z,43.50
2023-02-24T03:06:44.182Z,43.45
2023-02-24T03:07:44.160Z,46.49
2023-02-24T03:08:44.161Z,47.75
2023-02-24T03:09:44.131Z,47.60
2023-02-24T03:10:44.126Z,46.99
2023-02-24T03:11:44.130Z,45.47
2023-02-24T03:12:44.103Z,45.14
2023-02-24T03:13:44.100Z,49.43
2023-02-24T03:14:44.083Z,45.63
2023-02-24T03:15:44.078Z,45.41
2023-02-24T03:16:44.159Z,44.07
2023-02-24T03:17:44.059Z,44.49
2023-02-24T03:18:44.040Z,43.41
2023-02-24T03:19:44.028Z,43.90
2023-02-24T03:20:44.020Z,41.92
2023-02-24T03:21:44.012Z,45.03
2023-02-24T03:22:44.032Z,48.13
2023-02-24T03:23:43.990Z,50.38
2023-02-24T03:24:43.978Z,46.57
2023-02-24T03:25:43.979Z,43.28
2023-02-24T03:26:44.013Z,41.79
2023-02-24T03:27:43.962Z,44.32
2023-02-24T03:28:43.937Z,43.92
2023-02-24T03:29:43.931Z,44.27
2023-02-24T03:30:43.985Z,43.94
2023-02-24T03:31:44.097Z,44.83
2023-02-24T03:32:44.282Z,44.50
2023-02-24T03:33:43.904Z,42.62
2023-02-24T03:34:43.883Z,43.05
2023-02-24T03:35:43.869Z,46.83
2023-02-24T03:36:43.865Z,43.92
2023-02-24T03:37:43.870Z,40.15
2023-02-24T03:38:43.840Z,41.34
2023-02-24T03:39:43.820Z,42.44
2023-02-24T03:40:43.839Z,41.93
2023-02-24T03:41:45.027Z,42.95
2023-02-24T03:42:45.029Z,42.75
2023-02-24T03:43:45.001Z,42.75
2023-02-24T03:44:44.979Z,41.89
2023-02-24T03:45:44.992Z,42.12
2023-02-24T03:46:44.994Z,42.02
2023-02-24T03:47:44.927Z,46.29
2023-02-24T03:48:44.911Z,49.05
2023-02-24T03:49:44.923Z,48.25
2023-02-24T03:50:44.877Z,47.48
2023-02-24T03:51:44.938Z,45.86
2023-02-24T03:52:44.907Z,43.29
2023-02-24T03:53:44.901Z,44.92
2023-02-24T03:54:44.880Z,45.28
2023-02-24T03:55:44.846Z,44.55
2023-02-24T03:56:44.832Z,43.51
2023-02-24T03:57:44.854Z,43.46
2023-02-24T03:58:44.864Z,45.21
2023-02-24T03:59:44.832Z,44.28
2023-02-24T04:00:44.798Z,44.57
2023-02-24T04:01:44.816Z,44.64
2023-02-24T04:02:44.872Z,44.94
2023-02-24T04:03:44.788Z,44.21
2023-02-24T04:04:44.811Z,47.27
2023-02-24T04:05:44.782Z,48.56
2023-02-24T04:06:44.756Z,46.07
2023-02-24T04:07:44.733Z,45.85
2023-02-24T04:08:44.765Z,45.52
2023-02-24T04:09:44.687Z,48.35
2023-02-24T04:10:44.698Z,48.30
2023-02-24T04:11:44.699Z,47.66
2023-02-24T04:12:44.764Z,49.65
2023-02-24T04:13:44.664Z,47.89
2023-02-24T04:14:44.664Z,51.37
2023-02-24T04:15:44.673Z,44.87
2023-02-24T04:16:44.665Z,44.06
2023-02-24T04:17:44.667Z,50.18
2023-02-24T04:18:44.651Z,47.76
2023-02-24T04:19:44.625Z,46.17
2023-02-24T04:20:44.606Z,46.63
2023-02-24T04:21:44.660Z,50.18
2023-02-24T04:22:44.600Z,50.99
2023-02-24T04:23:44.590Z,47.99
2023-02-24T04:24:44.585Z,51.91
2023-02-24T04:25:44.561Z,43.76
2023-02-24T04:26:44.608Z,45.40
2023-02-24T04:27:44.549Z,49.01
2023-02-24T04:28:44.562Z,53.51
2023-02-24T04:29:44.563Z,47.36
2023-02-24T04:30:44.631Z,46.98
2023-02-24T04:31:44.636Z,43.18
2023-02-24T04:32:44.551Z,47.40
2023-02-24T04:33:44.480Z,48.16
2023-02-24T04:34:44.504Z,48.49
2023-02-24T04:35:44.461Z,52.10
2023-02-24T04:36:44.456Z,47.85
2023-02-24T04:37:44.451Z,47.85
2023-02-24T04:38:44.488Z,45.69
2023-02-24T04:39:44.453Z,50.70
2023-02-24T04:40:44.414Z,51.61
2023-02-24T04:41:44.416Z,45.34
2023-02-24T04:42:45.409Z,50.66
2023-02-24T04:43:44.406Z,48.63
2023-02-24T04:44:44.405Z,49.83
2023-02-24T04:45:44.353Z,51.12
2023-02-24T04:46:44.473Z,45.59
2023-02-24T04:47:44.353Z,46.27
2023-02-24T04:48:44.342Z,45.12
2023-02-24T04:49:45.302Z,47.94
2023-02-24T04:50:44.311Z,47.01
2023-02-24T04:51:44.294Z,43.37
2023-02-24T04:52:44.321Z,45.97
2023-02-24T04:53:44.298Z,44.41
2023-02-24T04:54:44.281Z,44.82
2023-02-24T04:55:44.267Z,43.68
2023-02-24T04:56:44.268Z,44.55
2023-02-24T04:57:44.251Z,43.12
2023-02-24T04:58:44.238Z,42.34
2023-02-24T04:59:44.228Z,43.58
2023-02-24T05:00:44.226Z,49.13
2023-02-24T05:01:44.215Z,43.52
2023-02-24T05:02:45.198Z,45.57
2023-02-24T05:03:44.275Z,53.29
2023-02-24T05:04:44.267Z,44.40
2023-02-24T05:05:44.198Z,53.30
2023-02-24T05:06:44.247Z,47.23
2023-02-24T05:07:44.206Z,44.79
2023-02-24T05:08:44.204Z,41.50
2023-02-24T05:09:44.178Z,42.89
2023-02-24T05:10:44.184Z,51.75
2023-02-24T05:11:44.154Z,44.14
2023-02-24T05:12:44.118Z,45.65
2023-02-24T05:13:44.137Z,43.20
2023-02-24T05:14:44.126Z,50.36
2023-02-24T05:15:44.118Z,39.60
2023-02-24T05:16:44.107Z,44.13
2023-02-24T05:17:44.074Z,39.05
2023-02-24T05:18:44.080Z,55.18
2023-02-24T05:19:44.079Z,43.83
2023-02-24T05:20:44.053Z,48.59
2023-02-24T05:21:44.036Z,42.26
2023-02-24T05:22:44.038Z,38.83
2023-02-24T05:23:44.050Z,37.71
2023-02-24T05:24:44.014Z,51.00
2023-02-24T05:25:43.974Z,37.95
2023-02-24T05:26:44.022Z,46.29
2023-02-24T05:27:43.983Z,47.80
2023-02-24T05:28:43.988Z,45.95
2023-02-24T05:29:43.947Z,37.85
2023-02-24T05:30:43.991Z,48.38
2023-02-24T05:31:44.080Z,50.44
2023-02-24T05:32:43.958Z,44.76
2023-02-24T05:33:43.948Z,48.86
2023-02-24T05:34:43.888Z,38.83
2023-02-24T05:35:43.891Z,37.80
2023-02-24T05:36:43.905Z,41.11
2023-02-24T05:37:43.874Z,48.23
2023-02-24T05:38:43.885Z,40.01
2023-02-24T05:39:43.874Z,43.91
2023-02-24T05:40:43.865Z,44.25
2023-02-24T05:41:43.834Z,49.61
2023-02-24T05:42:43.801Z,50.70
2023-02-24T05:43:43.791Z,48.18
2023-02-24T05:44:43.783Z,49.62
2023-02-24T05:45:43.784Z,45.74
2023-02-24T05:46:43.896Z,44.82
2023-02-24T05:47:43.795Z,50.27
2023-02-24T05:48:43.809Z,49.56
2023-02-24T05:49:43.759Z,52.21
2023-02-24T05:50:43.733Z,49.43
2023-02-24T05:51:43.768Z,48.30
2023-02-24T05:52:43.734Z,49.39
2023-02-24T05:53:43.734Z,48.63
2023-02-24T05:54:43.713Z,46.89
2023-02-24T05:55:43.691Z,52.36
2023-02-24T05:56:43.761Z,52.79
2023-02-24T05:57:43.982Z,50.80
2023-02-24T05:58:43.945Z,39.87
2023-02-24T05:59:43.804Z,48.38
2023-02-24T06:00:43.676Z,54.31
2023-02-24T06:01:43.750Z,45.36
2023-02-24T06:02:43.704Z,51.15
2023-02-24T06:03:43.738Z,48.99
2023-02-24T06:04:43.686Z,44.39
2023-02-24T06:05:43.689Z,52.77
2023-02-24T06:06:43.632Z,48.80
2023-02-24T06:07:43.699Z,54.64
2023-02-24T06:08:43.740Z,52.33
2023-02-24T06:09:43.673Z,56.35
2023-02-24T06:10:43.618Z,62.21
2023-02-24T06:11:43.599Z,56.71
2023-02-24T06:12:43.617Z,54.27
2023-02-24T06:13:44.305Z,53.08
2023-02-24T06:14:43.636Z,46.59
2023-02-24T06:15:43.577Z,53.99
2023-02-24T06:16:43.651Z,48.95
2023-02-24T06:17:43.571Z,53.56
2023-02-24T06:18:44.080Z,49.36
2023-02-24T06:19:43.585Z,55.87
2023-02-24T06:20:43.570Z,56.60
2023-02-24T06:21:43.524Z,58.18
2023-02-24T06:22:43.543Z,56.52
2023-02-24T06:23:43.520Z,59.17
2023-02-24T06:24:43.461Z,55.80
2023-02-24T06:25:43.486Z,52.01
2023-02-24T06:26:43.960Z,57.15
2023-02-24T06:27:43.497Z,61.61
2023-02-24T06:28:43.582Z,55.56
2023-02-24T06:29:43.653Z,53.25
2023-02-24T06:30:43.498Z,48.93
2023-02-24T06:31:43.573Z,49.94
2023-02-24T06:32:43.589Z,55.98
2023-02-24T06:33:43.477Z,55.59
2023-02-24T06:34:43.372Z,58.50
2023-02-24T06:35:43.389Z,51.65
2023-02-24T06:36:43.260Z,54.04
2023-02-24T06:37:43.320Z,56.69
2023-02-24T06:38:43.248Z,52.80
2023-02-24T06:39:43.316Z,51.90
2023-02-24T06:40:43.312Z,55.67
2023-02-24T06:41:43.832Z,54.50
2023-02-24T06:42:43.314Z,49.44
2023-02-24T06:43:43.411Z,55.38
2023-02-24T06:44:43.301Z,51.27
2023-02-24T06:45:43.410Z,49.63
2023-02-24T06:46:43.415Z,51.87
2023-02-24T06:47:43.328Z,52.46
2023-02-24T06:48:43.198Z,52.39
2023-02-24T06:49:43.217Z,54.26
2023-02-24T06:50:43.150Z,55.54
2023-02-24T06:51:43.164Z,53.82
2023-02-24T06:52:43.122Z,53.74
2023-02-24T06:53:43.304Z,56.61
2023-02-24T06:54:43.150Z,44.24
2023-02-24T06:55:43.171Z,54.96
2023-02-24T06:56:43.224Z,51.41
2023-02-24T07:02:10.033Z,55.82
2023-02-24T07:03:09.718Z,47.72
2023-02-24T07:18:05.635Z,54.54
2023-02-24T07:19:05.628Z,55.26
2023-02-24T07:21:20.269Z,51.19
2023-02-24T07:21:21.106Z,0.00
2023-02-24T07:22:20.783Z,54.76
2023-02-24T07:23:20.836Z,50.62
2023-02-24T07:24:20.804Z,45.45
2023-02-24T07:25:20.750Z,45.76
2023-02-24T07:26:20.765Z,49.42
2023-02-24T07:27:20.729Z,49.53
2023-02-24T07:28:20.715Z,50.96
2023-02-24T07:29:20.705Z,49.89
2023-02-24T07:30:20.724Z,52.41
2023-02-24T07:31:21.102Z,53.68
2023-02-24T07:32:20.741Z,51.89
2023-02-24T07:33:20.692Z,49.64
2023-02-24T07:34:20.663Z,50.73
2023-02-24T07:35:20.641Z,53.10
2023-02-24T07:36:20.606Z,55.11
2023-02-24T07:37:20.777Z,48.79
2023-02-24T07:38:20.594Z,53.02
2023-02-24T07:39:20.594Z,45.75
2023-02-24T07:40:20.609Z,49.60
2023-02-24T07:41:20.861Z,53.00
2023-02-24T07:42:20.607Z,54.12
2023-02-24T07:43:20.521Z,50.35
2023-02-24T07:44:20.520Z,52.58
2023-02-24T07:45:20.599Z,45.04
2023-02-24T07:46:20.580Z,52.65
2023-02-24T07:47:20.503Z,49.76
2023-02-24T07:48:20.476Z,52.43
2023-02-24T07:49:20.478Z,49.69
2023-02-24T07:50:20.479Z,54.64
2023-02-24T07:51:20.598Z,53.58
2023-02-24T07:52:20.460Z,55.47
2023-02-24T07:53:20.417Z,51.23
2023-02-24T07:54:20.421Z,43.50
2023-02-24T07:55:20.409Z,52.03
2023-02-24T07:56:20.466Z,47.41
2023-02-24T07:57:20.379Z,50.14
2023-02-24T07:58:20.362Z,49.77
2023-02-24T07:59:20.365Z,54.34
2023-02-24T08:00:20.367Z,46.05
2023-02-24T08:01:20.544Z,49.06
2023-02-24T08:02:20.352Z,49.04
2023-02-24T08:03:20.328Z,53.45
2023-02-24T08:04:20.304Z,54.71
2023-02-24T08:05:20.363Z,51.00
2023-02-24T08:06:20.308Z,48.18
2023-02-24T08:07:20.293Z,44.52
2023-02-24T08:08:20.282Z,53.91
2023-02-24T08:09:20.308Z,47.24
2023-02-24T08:10:20.274Z,49.48
2023-02-24T08:11:20.462Z,48.23
2023-02-24T08:12:20.283Z,55.16
2023-02-24T08:13:20.259Z,55.50
2023-02-24T08:14:20.287Z,55.31
2023-02-24T08:15:20.328Z,51.34
2023-02-24T08:16:20.302Z,43.11
2023-02-24T08:17:20.289Z,47.86
2023-02-24T08:18:20.229Z,52.25
2023-02-24T08:19:20.231Z,48.47
2023-02-24T08:20:20.226Z,51.55
2023-02-24T08:21:20.453Z,41.32
2023-02-24T08:22:20.223Z,49.15
2023-02-24T08:23:20.286Z,48.55
2023-02-24T08:24:20.273Z,46.39
2023-02-24T08:25:20.171Z,54.29
2023-02-24T08:26:20.167Z,48.85
2023-02-24T08:27:20.198Z,47.94
2023-02-24T08:28:20.117Z,49.87
2023-02-24T08:29:20.112Z,45.95
2023-02-24T08:30:20.088Z,49.41
2023-02-24T08:31:20.630Z,50.38
2023-02-24T08:32:20.949Z,51.94
2023-02-24T08:33:20.008Z,50.47
2023-02-24T08:34:20.023Z,46.84
2023-02-24T08:35:19.999Z,46.27
2023-02-24T08:36:20.007Z,50.37
2023-02-24T08:37:20.006Z,55.83
2023-02-24T08:38:19.964Z,54.48
2023-02-24T08:39:19.973Z,60.04
2023-02-24T08:40:19.958Z,45.17
2023-02-24T08:41:20.604Z,51.17
2023-02-24T08:42:19.938Z,54.69
2023-02-24T08:43:19.904Z,54.64
2023-02-24T08:44:19.888Z,56.87
2023-02-24T08:45:19.963Z,58.86
2023-02-24T08:46:19.898Z,59.07
2023-02-24T08:47:19.868Z,53.81
2023-02-24T08:48:19.915Z,52.92
2023-02-24T08:49:20.646Z,53.13
2023-02-24T08:50:19.835Z,46.74
2023-02-24T08:51:20.209Z,56.80
2023-02-24T08:52:19.830Z,49.17
2023-02-24T08:53:19.813Z,47.17
2023-02-24T08:54:19.827Z,47.23
2023-02-24T08:55:19.797Z,51.18
2023-02-24T08:56:20.170Z,50.96
2023-02-24T08:57:19.777Z,51.77
2023-02-24T08:58:19.833Z,52.55
2023-02-24T08:59:19.759Z,54.83
2023-02-24T09:00:19.864Z,56.61
2023-02-24T09:01:20.350Z,56.74
2023-02-24T09:02:19.899Z,49.22
2023-02-24T09:03:19.739Z,47.48
2023-02-24T09:04:19.883Z,46.86
2023-02-24T09:05:19.689Z,52.36
2023-02-24T09:14:37.441Z,49.56
2023-02-24T09:15:37.327Z,51.40
2023-02-24T09:21:55.178Z,49.57
2023-02-24T09:22:55.166Z,53.91
2023-02-24T09:23:55.229Z,47.29
2023-02-24T09:24:55.193Z,52.07
2023-02-24T09:26:09.299Z,54.11
2023-02-24T09:26:55.119Z,46.16
2023-02-24T09:27:55.212Z,49.59
2023-02-24T09:28:55.236Z,49.69
2023-02-24T09:29:55.095Z,52.10
2023-02-24T09:30:55.197Z,46.74
2023-02-24T09:31:55.168Z,52.92
2023-02-24T09:32:55.202Z,50.34
2023-02-24T09:33:55.080Z,53.21
2023-02-24T09:34:55.077Z,54.87
2023-02-24T09:35:55.049Z,48.73
2023-02-24T09:36:55.055Z,54.23
2023-02-24T09:37:55.022Z,50.56
2023-02-24T09:38:55.050Z,50.16
2023-02-24T09:39:55.017Z,52.72
2023-02-24T09:40:54.977Z,53.38
2023-02-24T09:41:55.008Z,54.47
2023-02-24T09:42:55.004Z,49.02
2023-02-24T09:43:54.991Z,52.20
2023-02-24T09:44:54.973Z,52.20
2023-02-24T09:45:55.075Z,50.22
2023-02-24T09:46:55.000Z,55.35
2023-02-24T09:47:54.989Z,47.94
2023-02-24T09:48:54.985Z,50.84
2023-02-24T09:49:54.897Z,54.12
2023-02-24T09:51:03.345Z,48.93
2023-02-24T09:51:55.909Z,46.45
2023-02-24T09:53:00.098Z,48.24
2023-02-24T09:53:55.857Z,50.73
2023-02-24T09:54:54.904Z,49.99
2023-02-24T09:55:54.850Z,55.67
2023-02-24T09:56:54.841Z,43.75
2023-02-24T09:57:54.841Z,45.09
2023-02-24T09:58:54.814Z,50.21
2023-02-24T09:59:54.837Z,48.19
2023-02-24T10:00:54.795Z,49.18
2023-02-24T10:01:54.885Z,49.45
2023-02-24T10:02:54.748Z,45.06
2023-02-24T10:03:54.745Z,45.66
2023-02-24T10:04:54.752Z,55.06
2023-02-24T10:05:54.715Z,60.86
2023-02-24T10:06:54.717Z,51.08
2023-02-24T10:07:54.697Z,47.38
2023-02-24T10:08:54.708Z,53.50
2023-02-24T10:09:54.672Z,56.76
2023-02-24T10:10:54.708Z,55.61
2023-02-24T10:11:54.751Z,50.21
2023-02-24T10:12:54.664Z,48.15
2023-02-24T10:13:54.628Z,45.52
2023-02-24T10:15:00.499Z,47.11
2023-02-24T10:15:58.824Z,51.60
2023-02-24T10:16:54.645Z,55.17
2023-02-24T10:17:54.615Z,49.12
2023-02-24T10:18:54.621Z,46.85
2023-02-24T10:19:54.577Z,54.64
2023-02-24T10:20:54.606Z,48.55
2023-02-24T10:21:54.569Z,50.11
2023-02-24T10:22:54.530Z,49.81
2023-02-24T10:23:54.882Z,44.59
2023-02-24T10:24:54.550Z,56.77
2023-02-24T10:25:54.550Z,51.41
2023-02-24T10:27:00.817Z,44.86
2023-02-24T10:27:55.534Z,51.02
2023-02-24T10:28:54.476Z,52.14
2023-02-24T10:29:54.469Z,50.07
2023-02-24T10:30:54.566Z,49.68
2023-02-24T10:31:54.685Z,49.47
2023-02-24T10:32:54.484Z,46.84
2023-02-24T10:33:54.484Z,50.40
2023-02-24T10:34:54.466Z,52.61
2023-02-24T10:35:54.397Z,51.67
2023-02-24T10:36:54.423Z,53.37
2023-02-24T10:37:54.383Z,51.56
2023-02-24T10:38:54.385Z,51.75
2023-02-24T10:39:54.355Z,48.96
2023-02-24T10:40:54.389Z,45.43
2023-02-24T10:41:54.542Z,50.88
2023-02-24T10:42:54.342Z,49.53
2023-02-24T10:43:54.380Z,48.21
2023-02-24T10:45:01.930Z,45.51
2023-02-24T10:45:55.412Z,54.67
2023-02-24T10:46:54.343Z,50.21
2023-02-24T10:47:54.280Z,51.78
2023-02-24T10:48:54.278Z,53.22
2023-02-24T10:49:54.256Z,54.33
2023-02-24T10:50:56.190Z,53.58
2023-02-24T10:51:54.234Z,48.15
2023-02-24T10:52:54.241Z,54.49
2023-02-24T10:53:54.247Z,47.32
2023-02-24T10:54:54.263Z,49.14
2023-02-24T10:55:54.197Z,46.58
2023-02-24T10:56:54.223Z,53.22
2023-02-24T10:57:59.216Z,50.00
2023-02-24T10:58:55.150Z,48.27
2023-02-24T10:59:54.241Z,50.78
2023-02-24T11:00:54.137Z,55.13
2023-02-24T11:01:54.182Z,52.01
2023-02-24T11:02:54.184Z,52.79
2023-02-24T11:03:54.109Z,51.60
2023-02-24T11:04:54.224Z,51.91
2023-02-24T11:05:54.086Z,53.69
2023-02-24T11:06:54.061Z,52.76
2023-02-24T11:07:54.137Z,48.22
2023-02-24T11:08:54.054Z,45.87
2023-02-24T11:09:54.045Z,49.26
2023-02-24T11:10:54.010Z,58.10
2023-02-24T11:11:54.002Z,55.41
2023-02-24T11:13:04.113Z,53.01
2023-02-24T11:13:55.000Z,55.55
2023-02-24T11:14:53.975Z,47.36
2023-02-24T11:15:54.005Z,50.93
2023-02-24T11:16:53.969Z,54.94
2023-02-24T11:17:54.120Z,48.90
2023-02-24T11:18:53.931Z,52.70
2023-02-24T11:19:53.917Z,52.38
2023-02-24T11:20:53.916Z,48.40
2023-02-24T11:21:53.892Z,52.42
2023-02-24T11:22:53.899Z,56.71
2023-02-24T11:23:53.866Z,53.46
2023-02-24T11:24:53.863Z,55.60
2023-02-24T11:25:53.850Z,52.01
2023-02-24T11:26:53.843Z,51.53
2023-02-24T11:27:53.874Z,55.54
2023-02-24T11:28:53.820Z,54.29
2023-02-24T11:29:53.808Z,56.71
2023-02-24T11:30:53.881Z,56.03
2023-02-24T11:31:53.985Z,48.05
2023-02-24T11:32:53.872Z,53.15
2023-02-24T11:33:53.807Z,52.62
2023-02-24T11:34:53.767Z,48.71
2023-02-24T11:35:53.755Z,50.79
2023-02-24T11:36:53.760Z,47.33
2023-02-24T11:37:53.739Z,52.07
2023-02-24T11:38:53.715Z,51.56
2023-02-24T11:39:53.716Z,49.04
2023-02-24T11:40:53.786Z,58.99
2023-02-24T11:41:53.684Z,53.33
2023-02-24T11:42:53.717Z,52.08
2023-02-24T11:43:53.705Z,51.42
2023-02-24T11:44:53.679Z,47.74
2023-02-24T11:45:53.634Z,48.62
2023-02-24T11:46:53.624Z,56.56
2023-02-24T11:47:54.803Z,53.28
2023-02-24T11:48:54.798Z,53.17
2023-02-24T11:49:54.789Z,47.84
2023-02-24T11:50:54.731Z,55.82
2023-02-24T11:51:54.782Z,51.29
2023-02-24T11:52:54.711Z,50.71
2023-02-24T11:53:54.794Z,49.07
2023-02-24T11:54:54.765Z,45.26
2023-02-24T11:55:54.714Z,52.33
2023-02-24T11:56:54.681Z,52.67
2023-02-24T11:57:54.708Z,50.32
2023-02-24T11:58:54.689Z,50.25
2023-02-24T11:59:54.692Z,51.05
2023-02-24T12:00:54.640Z,49.67
2023-02-24T12:01:54.657Z,57.81
2023-02-24T12:02:54.686Z,50.29
2023-02-24T12:03:54.669Z,46.21
2023-02-24T12:04:54.645Z,48.91
2023-02-24T12:05:54.756Z,48.09
2023-02-24T12:06:54.620Z,52.57
2023-02-24T12:07:54.651Z,52.75
2023-02-24T12:08:54.596Z,49.87
2023-02-24T12:10:00.335Z,48.33
2023-02-24T12:10:56.586Z,52.28
2023-02-24T12:11:54.607Z,51.50
2023-02-24T12:12:54.558Z,54.21
2023-02-24T12:13:54.573Z,52.34
2023-02-24T12:14:54.543Z,60.86
2023-02-24T12:15:54.563Z,51.69
2023-02-24T12:16:54.527Z,52.72
2023-02-24T12:17:54.530Z,55.06
2023-02-24T12:18:54.507Z,52.07
2023-02-24T12:19:54.493Z,55.31
2023-02-24T12:20:54.500Z,50.23
2023-02-24T12:21:54.469Z,52.04
2023-02-24T12:22:54.432Z,53.63
2023-02-24T12:23:54.464Z,58.71
2023-02-24T12:24:54.433Z,49.13
2023-02-24T12:25:54.412Z,48.57
2023-02-24T12:26:54.401Z,57.00
2023-02-24T12:27:54.346Z,54.13
2023-02-24T12:28:54.401Z,55.64
2023-02-24T12:29:54.326Z,54.58
2023-02-24T12:30:54.490Z,51.81
2023-02-24T12:31:54.468Z,54.69
2023-02-24T12:32:54.342Z,56.22
2023-02-24T12:33:54.302Z,52.15
2023-02-24T12:34:55.261Z,57.23
2023-02-24T12:35:54.337Z,48.93
2023-02-24T12:36:54.276Z,52.84
2023-02-24T12:37:54.269Z,54.32
2023-02-24T12:38:54.294Z,53.86
2023-02-24T12:39:54.257Z,53.59
2023-02-24T12:40:54.297Z,52.12
2023-02-24T12:41:54.218Z,52.50
2023-02-24T12:42:54.215Z,48.26
2023-02-24T12:43:54.193Z,53.83
2023-02-24T12:44:54.206Z,50.35
2023-02-24T12:45:54.156Z,52.42
2023-02-24T12:46:54.131Z,54.05
2023-02-24T12:47:56.433Z,51.18
2023-02-24T12:48:54.135Z,50.31
2023-02-24T12:49:54.154Z,56.53
2023-02-24T12:50:54.126Z,47.34
2023-02-24T12:51:54.168Z,49.49
2023-02-24T12:52:54.179Z,55.47
2023-02-24T12:53:56.111Z,57.14
2023-02-24T12:54:54.120Z,55.27
2023-02-24T12:55:54.134Z,53.20
2023-02-24T12:56:54.161Z,54.92
2023-02-24T12:57:54.134Z,50.08
2023-02-24T12:58:54.138Z,53.50
2023-02-24T12:59:56.437Z,50.78
2023-02-24T13:00:54.089Z,47.40
2023-02-24T13:01:54.161Z,55.23
2023-02-24T13:02:54.063Z,48.41
2023-02-24T13:03:54.092Z,54.84
2023-02-24T13:04:54.052Z,57.82
2023-02-24T13:05:54.021Z,53.43
2023-02-24T13:06:54.212Z,50.71
2023-02-24T13:07:54.063Z,52.61
2023-02-24T13:08:54.077Z,55.42
2023-02-24T13:09:54.311Z,55.40
2023-02-24T13:10:54.015Z,53.84
2023-02-24T13:11:53.998Z,51.57
2023-02-24T13:12:54.000Z,47.63
2023-02-24T13:13:54.207Z,49.00
2023-02-24T13:14:53.946Z,57.38
2023-02-24T13:15:53.982Z,51.03
2023-02-24T13:16:54.110Z,55.94
2023-02-24T13:17:55.252Z,56.07
2023-02-24T13:18:53.939Z,52.57
2023-02-24T13:19:53.960Z,55.25
2023-02-24T13:20:53.911Z,52.39
2023-02-24T13:21:53.962Z,53.28
2023-02-24T13:22:54.002Z,54.84
2023-02-24T13:23:56.151Z,53.39
2023-02-24T13:24:53.949Z,47.89
2023-02-24T13:25:53.898Z,53.47
2023-02-24T13:26:53.975Z,54.50
2023-02-24T13:27:53.851Z,53.86
2023-02-24T13:28:53.977Z,56.65
2023-02-24T13:29:54.803Z,59.46
2023-02-24T13:30:53.816Z,58.53
2023-02-24T13:31:53.926Z,59.35
2023-02-24T13:32:53.840Z,58.26
2023-02-24T13:33:53.793Z,55.68
2023-02-24T13:34:53.811Z,56.68
2023-02-24T13:35:54.771Z,56.44
2023-02-24T13:36:53.754Z,57.20
2023-02-24T13:37:53.722Z,58.49